createdAt,value
2022-08-16T00:01:33.997Z,97924.03
2022-08-16T00:03:37.585Z,97920.81
2022-08-16T00:05:48.500Z,97931.53
2022-08-16T00:07:56.076Z,97931.09
2022-08-16T00:09:59.428Z,97935.75
2022-08-16T00:12:01.859Z,97930.94
2022-08-16T00:14:08.727Z,97937.69
2022-08-16T00:17:01.350Z,97933.63
2022-08-16T00:18:32.981Z,97929.13
2022-08-16T00:20:35.079Z,97925.88
2022-08-16T00:22:39.109Z,97920.22
2022-08-16T00:24:46.834Z,97916.97
2022-08-16T00:26:49.565Z,97916.88
2022-08-16T00:28:54.869Z,97914.47
2022-08-16T00:30:59.272Z,97915.56
2022-08-16T00:33:03.081Z,97918.69
2022-08-16T00:35:15.154Z,97913.06
2022-08-16T00:37:20.294Z,97912.94
2022-08-16T00:39:22.374Z,97906.94
2022-08-16T00:41:24.673Z,97914.88
2022-08-16T00:43:42.617Z,97919.53
2022-08-16T00:46:00.597Z,97916.66
2022-08-16T00:48:30.781Z,97919.34
2022-08-16T00:50:35.828Z,97918.47
2022-08-16T00:52:51.318Z,97924.41
2022-08-16T00:54:53.568Z,97922.69
2022-08-16T00:57:00.005Z,97925.03
2022-08-16T00:59:02.860Z,97923.78
2022-08-16T01:01:07.999Z,97934.00
2022-08-16T01:03:12.799Z,97934.38
2022-08-16T01:05:14.788Z,97927.53
2022-08-16T01:07:18.319Z,97934.63
2022-08-16T01:09:20.822Z,97931.72
2022-08-16T01:11:25.849Z,97935.59
2022-08-16T01:13:31.566Z,97929.56
2022-08-16T01:15:37.705Z,97935.84
2022-08-16T01:17:47.479Z,97935.78
2022-08-16T01:20:02.601Z,97939.16
2022-08-16T01:22:48.448Z,97939.44
2022-08-16T01:25:04.189Z,97942.47
2022-08-16T01:27:12.273Z,97950.03
2022-08-16T01:29:56.791Z,97936.00
2022-08-16T01:31:48.648Z,97936.72
2022-08-16T01:33:53.861Z,97946.16
2022-08-16T01:36:11.766Z,97938.13
2022-08-16T01:38:25.742Z,97936.06
2022-08-16T01:40:31.123Z,97943.97
2022-08-16T01:42:33.565Z,97936.31
2022-08-16T01:44:38.259Z,97941.78
2022-08-16T01:46:47.566Z,97944.13
2022-08-16T01:48:57.160Z,97940.41
2022-08-16T01:51:09.052Z,97941.94
2022-08-16T01:53:18.994Z,97946.56
2022-08-16T01:55:41.377Z,97947.63
2022-08-16T01:57:53.169Z,97942.41
2022-08-16T01:59:58.072Z,97942.31
2022-08-16T02:02:00.993Z,97941.38
2022-08-16T02:04:11.326Z,97942.91
2022-08-16T02:06:15.603Z,97940.81
2022-08-16T02:08:35.714Z,97947.44
2022-08-16T02:10:38.497Z,97944.59
2022-08-16T02:12:51.915Z,97952.44
2022-08-16T02:14:55.310Z,97948.75
2022-08-16T02:16:59.492Z,97952.25
2022-08-16T02:19:02.525Z,97950.16
2022-08-16T02:21:31.233Z,97945.66
2022-08-16T02:23:36.394Z,97945.56
2022-08-16T02:25:52.516Z,97952.16
2022-08-16T02:27:58.866Z,97944.53
2022-08-16T02:30:04.986Z,97949.28
2022-08-16T02:32:49.211Z,97953.19
2022-08-16T02:34:32.978Z,97955.91
2022-08-16T02:36:49.666Z,97955.06
2022-08-16T02:38:53.434Z,97961.47
2022-08-16T02:40:57.727Z,97958.69
2022-08-16T02:43:00.914Z,97956.22
2022-08-16T02:45:05.740Z,97956.22
2022-08-16T02:47:09.307Z,97955.78
2022-08-16T02:49:12.298Z,97956.13
2022-08-16T02:51:16.347Z,97961.69
2022-08-16T02:53:23.374Z,97958.09
2022-08-16T02:55:40.973Z,97957.63
2022-08-16T02:57:54.286Z,97961.56
2022-08-16T02:59:56.591Z,97959.91
2022-08-16T03:01:58.300Z,97959.44
2022-08-16T03:04:46.323Z,97957.03
2022-08-16T03:06:41.524Z,97955.75
2022-08-16T03:09:13.850Z,97956.44
2022-08-16T03:11:22.497Z,97952.03
2022-08-16T03:13:24.282Z,97950.44
2022-08-16T03:15:27.740Z,97951.56
2022-08-16T03:17:32.480Z,97953.91
2022-08-16T03:19:47.551Z,97951.81
2022-08-16T03:21:58.582Z,97966.84
2022-08-16T03:24:00.937Z,97960.84
2022-08-16T03:26:03.013Z,97966.41
2022-08-16T03:28:07.599Z,97961.19
2022-08-16T03:30:18.302Z,97956.78
2022-08-16T03:32:26.146Z,97959.91
2022-08-16T03:34:29.428Z,97956.69
2022-08-16T03:36:32.892Z,97949.84
2022-08-16T03:38:38.966Z,97960.16
2022-08-16T03:40:47.368Z,97960.47
2022-08-16T03:43:18.892Z,97963.63
2022-08-16T03:45:14.444Z,97961.53
2022-08-16T03:47:19.830Z,97961.88
2022-08-16T03:49:36.709Z,97970.56
2022-08-16T03:51:42.354Z,97960.16
2022-08-16T03:54:00.870Z,97960.47
2022-08-16T03:56:08.005Z,97956.41
2022-08-16T03:58:22.626Z,97958.38
2022-08-16T04:00:35.941Z,97957.59
2022-08-16T04:02:45.770Z,97963.84
2022-08-16T04:04:53.878Z,97953.41
2022-08-16T04:06:56.312Z,97967.31
2022-08-16T04:08:59.358Z,97974.00
2022-08-16T04:11:03.916Z,97973.22
2022-08-16T04:13:20.333Z,97971.59
2022-08-16T04:15:23.040Z,97964.75
2022-08-16T04:17:44.206Z,97964.28
2022-08-16T04:19:46.588Z,97963.47
2022-08-16T04:21:50.913Z,97967.41
2022-08-16T04:24:01.073Z,97972.84
2022-08-16T04:26:02.626Z,97972.03
2022-08-16T04:28:54.686Z,97979.56
2022-08-16T04:30:31.909Z,97988.25
2022-08-16T04:32:38.804Z,97994.13
2022-08-16T04:34:45.987Z,97995.31
2022-08-16T04:36:48.921Z,98001.19
2022-08-16T04:38:52.470Z,97996.44
2022-08-16T04:40:54.526Z,97999.56
2022-08-16T04:42:56.875Z,97996.81
2022-08-16T04:45:02.022Z,97997.13
2022-08-16T04:47:21.190Z,98004.63
2022-08-16T04:49:26.813Z,97997.44
2022-08-16T04:51:41.287Z,98008.91
2022-08-16T04:53:43.343Z,98003.00
2022-08-16T04:55:45.138Z,98006.47
2022-08-16T04:57:53.342Z,98012.84
2022-08-16T04:59:56.828Z,98009.59
2022-08-16T05:01:59.511Z,98009.59
2022-08-16T05:04:02.106Z,98016.28
2022-08-16T05:06:10.655Z,98016.28
2022-08-16T05:08:28.870Z,98018.25
2022-08-16T05:10:37.793Z,98020.56
2022-08-16T05:12:41.369Z,98021.03
2022-08-16T05:15:01.817Z,98013.88
2022-08-16T05:17:05.698Z,98008.31
2022-08-16T05:19:11.588Z,98011.09
2022-08-16T05:21:38.066Z,98011.91
2022-08-16T05:23:41.144Z,98007.50
2022-08-16T05:25:48.305Z,98016.28
2022-08-16T05:27:51.722Z,98015.16
2022-08-16T05:30:01.017Z,98013.97
2022-08-16T05:32:11.049Z,98011.19
2022-08-16T05:34:29.669Z,98011.19
2022-08-16T05:36:33.961Z,98012.84
2022-08-16T05:38:39.282Z,98017.72
2022-08-16T05:40:57.339Z,98021.00
2022-08-16T05:43:03.564Z,98023.41
2022-08-16T05:45:07.763Z,98023.56
2022-08-16T05:47:11.088Z,98025.28
2022-08-16T05:49:22.480Z,98015.91
2022-08-16T05:51:39.090Z,98019.66
2022-08-16T05:53:42.569Z,98018.97
2022-08-16T05:55:47.846Z,98024.31
2022-08-16T05:57:52.357Z,98034.84
2022-08-16T05:59:59.623Z,98039.38
2022-08-16T06:02:13.929Z,98026.88
2022-08-16T06:04:36.703Z,98037.78
2022-08-16T06:06:55.877Z,98033.97
2022-08-16T06:08:59.790Z,98027.84
2022-08-16T06:11:10.519Z,98022.16
2022-08-16T06:13:15.491Z,98022.91
2022-08-16T06:15:21.173Z,98025.22
2022-08-16T06:17:23.209Z,98031.09
2022-08-16T06:19:25.456Z,98030.63
2022-08-16T06:21:37.105Z,98023.44
2022-08-16T06:23:40.639Z,98027.00
2022-08-16T06:25:52.222Z,98027.78
2022-08-16T06:27:58.393Z,98033.34
2022-08-16T06:30:11.243Z,98034.94
2022-08-16T06:32:27.863Z,98030.56
2022-08-16T06:34:55.222Z,98034.94
2022-08-16T06:36:59.574Z,98026.63
2022-08-16T06:39:06.141Z,98035.75
2022-08-16T06:41:28.263Z,98026.59
2022-08-16T06:43:44.469Z,98032.91
2022-08-16T06:45:51.324Z,98031.28
2022-08-16T06:47:56.624Z,98032.00
2022-08-16T06:50:02.978Z,98022.41
2022-08-16T06:52:57.350Z,98022.28
2022-08-16T06:54:36.084Z,98019.84
2022-08-16T06:56:37.807Z,98023.66
2022-08-16T06:58:42.817Z,98030.31
2022-08-16T07:00:49.906Z,98021.00
2022-08-16T07:02:56.564Z,98027.28
2022-08-16T07:04:58.238Z,98032.75
2022-08-16T07:07:00.150Z,98033.03
2022-08-16T07:09:01.979Z,98029.25
2022-08-16T07:11:13.620Z,98030.31
2022-08-16T07:13:43.928Z,98032.13
2022-08-16T07:15:49.974Z,98030.72
2022-08-16T07:17:57.430Z,98034.91
2022-08-16T07:20:29.768Z,98039.88
2022-08-16T07:22:38.662Z,98028.06
2022-08-16T07:24:46.381Z,98028.28
2022-08-16T07:26:48.668Z,98034.06
2022-08-16T07:28:52.201Z,98034.59
2022-08-16T07:30:54.178Z,98026.72
2022-08-16T07:33:10.677Z,98041.72
2022-08-16T07:35:18.758Z,98030.63
2022-08-16T07:37:23.182Z,98025.13
2022-08-16T07:39:43.340Z,98022.94
2022-08-16T07:41:45.440Z,98035.09
2022-08-16T07:43:48.688Z,98032.44
2022-08-16T07:45:53.452Z,98030.63
2022-08-16T07:47:55.619Z,98031.53
2022-08-16T07:49:58.984Z,98032.84
2022-08-16T07:52:01.830Z,98033.00
2022-08-16T07:54:37.776Z,98046.00
2022-08-16T07:56:44.786Z,98045.31
2022-08-16T07:58:46.884Z,98047.41
2022-08-16T08:00:58.300Z,98043.09
2022-08-16T08:03:02.663Z,98045.25
2022-08-16T08:05:06.353Z,98054.16
2022-08-16T08:07:09.163Z,98048.63
2022-08-16T08:09:12.856Z,98049.53
2022-08-16T08:11:14.409Z,98052.44
2022-08-16T08:13:20.325Z,98048.13
2022-08-16T08:15:52.583Z,98057.84
2022-08-16T08:17:55.846Z,98047.47
2022-08-16T08:20:09.686Z,98047.91
2022-08-16T08:22:19.473Z,98046.78
2022-08-16T08:24:31.486Z,98046.44
2022-08-16T08:26:34.996Z,98045.69
2022-08-16T08:28:36.737Z,98044.97
2022-08-16T08:30:51.359Z,98049.03
2022-08-16T08:33:00.716Z,98046.28
2022-08-16T08:35:12.562Z,98049.13
2022-08-16T08:37:15.103Z,98048.78
2022-08-16T08:39:21.008Z,98048.03
2022-08-16T08:41:29.241Z,98056.94
2022-08-16T08:43:41.363Z,98057.34
2022-08-16T08:45:48.878Z,98056.56
2022-08-16T08:47:58.583Z,98059.03
2022-08-16T08:50:05.212Z,98061.44
2022-08-16T08:52:07.967Z,98063.91
2022-08-16T08:54:10.730Z,98059.47
2022-08-16T08:56:23.381Z,98074.38
2022-08-16T08:58:34.988Z,98065.50
2022-08-16T09:00:51.621Z,98067.13
2022-08-16T09:02:54.983Z,98064.69
2022-08-16T09:04:58.500Z,98065.94
2022-08-16T09:07:01.294Z,98060.28
2022-08-16T09:09:06.699Z,98059.44
2022-08-16T09:11:08.559Z,98057.84
2022-08-16T09:13:14.411Z,98060.66
2022-08-16T09:15:21.820Z,98057.03
2022-08-16T09:17:47.150Z,98058.63
2022-08-16T09:19:49.368Z,98062.69
2022-08-16T09:21:56.378Z,98067.53
2022-08-16T09:23:58.361Z,98060.28
2022-08-16T09:26:00.479Z,98055.81
2022-08-16T09:28:09.221Z,98049.38
2022-08-16T09:30:33.444Z,98048.19
2022-08-16T09:32:37.666Z,98048.19
2022-08-16T09:34:39.260Z,98046.19
2022-08-16T09:36:45.957Z,98046.97
2022-08-16T09:38:48.348Z,98051.41
2022-08-16T09:40:53.270Z,98044.97
2022-08-16T09:42:59.304Z,98041.75
2022-08-16T09:45:12.620Z,98039.31
2022-08-16T09:47:23.505Z,98044.97
2022-08-16T09:49:26.311Z,98041.72
2022-08-16T09:51:39.220Z,98047.41
2022-08-16T09:53:41.835Z,98053.81
2022-08-16T09:55:49.294Z,98040.47
2022-08-16T09:57:52.898Z,98035.19
2022-08-16T09:59:56.238Z,98041.63
2022-08-16T10:01:59.780Z,98041.19
2022-08-16T10:04:04.132Z,98036.72
2022-08-16T10:06:07.590Z,98047.13
2022-08-16T10:08:25.382Z,98043.84
2022-08-16T10:10:31.057Z,98042.16
2022-08-16T10:12:55.399Z,98032.41
2022-08-16T10:14:57.605Z,98037.16
2022-08-16T10:17:04.994Z,98037.50
2022-08-16T10:19:07.602Z,98040.28
2022-08-16T10:21:10.537Z,98035.03
2022-08-16T10:23:17.198Z,98033.00
2022-08-16T10:27:19.943Z,98021.72
2022-08-16T10:27:56.942Z,98037.88
2022-08-16T10:30:24.704Z,98031.44
2022-08-16T10:32:27.450Z,98033.06
2022-08-16T10:34:32.814Z,98029.47
2022-08-16T10:36:38.656Z,98039.59
2022-08-16T10:38:42.124Z,98036.38
2022-08-16T10:40:45.425Z,98038.03
2022-08-16T10:42:49.575Z,98034.81
2022-08-16T10:44:53.769Z,98032.88
2022-08-16T10:46:56.788Z,98030.84
2022-08-16T10:48:58.435Z,98034.13
2022-08-16T10:51:02.856Z,98030.09
2022-08-16T10:53:07.867Z,98031.72
2022-08-16T10:57:33.380Z,98034.59
2022-08-16T10:59:43.908Z,98034.97
2022-08-16T11:06:38.342Z,98021.25
2022-08-16T11:08:45.466Z,98015.22
2022-08-16T11:11:06.862Z,98028.47
2022-08-16T11:15:35.888Z,98029.03
2022-08-16T11:17:44.933Z,98024.94
2022-08-16T11:20:42.313Z,98020.34
2022-08-16T11:22:38.944Z,98024.22
2022-08-16T11:24:41.772Z,98015.63
2022-08-16T11:26:45.527Z,98022.75
2022-08-16T11:29:15.270Z,98024.22
2022-08-16T11:31:20.060Z,98024.84
2022-08-16T11:33:52.023Z,98017.84
2022-08-16T11:36:22.166Z,98022.63
2022-08-16T11:38:47.195Z,98019.72
2022-08-16T11:40:57.334Z,98026.63
2022-08-16T11:43:04.090Z,98020.97
2022-08-16T11:45:07.258Z,98025.44
2022-08-16T11:47:09.473Z,98025.50
2022-08-16T11:49:13.700Z,98023.50
2022-08-16T11:51:15.804Z,98033.28
2022-08-16T11:53:18.747Z,98026.84
2022-08-16T11:55:20.344Z,98021.66
2022-08-16T11:57:25.363Z,98023.75
2022-08-16T11:59:29.305Z,98034.28
2022-08-16T12:01:54.695Z,98026.69
2022-08-16T12:03:52.626Z,98026.72
2022-08-16T12:05:54.740Z,98035.22
2022-08-16T12:07:56.994Z,98028.34
2022-08-16T12:10:06.356Z,98017.81
2022-08-16T12:12:10.006Z,98019.41
2022-08-16T12:14:11.681Z,98019.00
2022-08-16T12:16:17.461Z,98021.03
2022-08-16T12:18:22.430Z,98031.53
2022-08-16T12:20:27.903Z,98026.25
2022-08-16T12:22:31.839Z,98026.66
2022-08-16T12:24:38.877Z,98029.03
2022-08-16T12:26:40.533Z,98033.34
2022-08-16T12:28:54.583Z,98028.03
2022-08-16T12:30:57.942Z,98026.28
2022-08-16T12:33:02.907Z,98021.72
2022-08-16T12:35:07.594Z,98020.41
2022-08-16T12:37:11.773Z,98023.53
2022-08-16T12:39:15.092Z,98022.59
2022-08-16T12:41:24.670Z,98021.25
2022-08-16T12:43:31.142Z,98018.34
2022-08-16T12:45:38.098Z,98012.13
2022-08-16T12:48:29.713Z,98017.66
2022-08-16T12:50:20.350Z,98014.78
2022-08-16T12:52:32.895Z,98006.66
2022-08-16T12:54:37.335Z,98005.06
2022-08-16T12:56:41.459Z,98014.34
2022-08-16T12:58:49.201Z,98007.50
2022-08-16T13:00:52.355Z,97992.56
2022-08-16T13:02:54.465Z,97984.44
2022-08-16T13:04:56.219Z,97997.47
2022-08-16T13:06:59.169Z,97998.75
2022-08-16T13:09:02.449Z,97989.88
2022-08-16T13:11:07.609Z,97991.53
2022-08-16T13:13:10.167Z,97985.50
2022-08-16T13:15:15.677Z,97989.19
2022-08-16T13:17:26.496Z,97988.00
2022-08-16T13:19:49.832Z,97989.66
2022-08-16T13:21:53.326Z,97981.97
2022-08-16T13:23:55.705Z,97984.75
2022-08-16T13:25:57.836Z,97989.56
2022-08-16T13:28:02.033Z,97981.78
2022-08-16T13:30:11.320Z,97980.94
2022-08-16T13:32:40.578Z,97974.47
2022-08-16T13:34:42.762Z,97982.97
2022-08-16T13:36:51.917Z,97975.34
2022-08-16T13:38:57.557Z,97988.81
2022-08-16T13:41:02.296Z,97989.31
2022-08-16T13:43:04.010Z,97988.97
2022-08-16T13:45:07.666Z,97992.25
2022-08-16T13:47:10.470Z,97994.38
2022-08-16T13:49:11.938Z,97991.22
2022-08-16T13:51:17.753Z,97980.78
2022-08-16T13:53:24.142Z,97984.53
2022-08-16T13:55:26.899Z,97980.94
2022-08-16T13:58:35.167Z,97982.25
2022-08-16T13:59:52.727Z,97984.75
2022-08-16T14:02:02.646Z,97980.34
2022-08-16T14:04:05.484Z,97988.50
2022-08-16T14:06:11.205Z,97980.47
2022-08-16T14:08:13.169Z,97968.78
2022-08-16T14:10:16.933Z,97980.91
2022-08-16T14:12:20.769Z,97978.06
2022-08-16T14:14:28.751Z,97975.63
2022-08-16T14:16:34.289Z,97980.03
2022-08-16T14:18:36.326Z,97975.53
2022-08-16T14:20:38.304Z,97979.19
2022-08-16T14:22:42.662Z,97978.81
2022-08-16T14:24:51.299Z,97980.47
2022-08-16T14:26:53.004Z,97974.44
2022-08-16T14:28:55.553Z,97972.44
2022-08-16T14:31:03.046Z,97978.94
2022-08-16T14:33:05.234Z,97971.28
2022-08-16T14:35:15.644Z,97967.28
2022-08-16T14:37:17.454Z,97973.00
2022-08-16T14:39:21.917Z,97967.81
2022-08-16T14:41:23.907Z,97964.19
2022-08-16T14:43:25.939Z,97968.25
2022-08-16T14:45:31.746Z,97971.13
2022-08-16T14:47:37.039Z,97972.38
2022-08-16T14:49:40.520Z,97968.34
2022-08-16T14:51:46.180Z,97974.81
2022-08-16T14:53:49.756Z,97965.94
2022-08-16T14:55:54.593Z,97966.34
2022-08-16T14:57:56.282Z,97961.94
2022-08-16T15:00:01.984Z,97956.66
2022-08-16T15:02:17.245Z,97956.28
2022-08-16T15:04:47.904Z,97961.13
2022-08-16T15:06:50.172Z,97956.28
2022-08-16T15:08:51.765Z,97965.13
2022-08-16T15:10:53.348Z,97959.03
2022-08-16T15:12:56.360Z,97962.28
2022-08-16T15:14:59.622Z,97958.63
2022-08-16T15:17:02.239Z,97958.22
2022-08-16T15:19:05.277Z,97952.94
2022-08-16T15:21:08.717Z,97953.75
2022-08-16T15:23:11.044Z,97962.59
2022-08-16T15:25:17.813Z,97950.47
2022-08-16T15:27:19.444Z,97954.91
2022-08-16T15:29:20.946Z,97953.31
2022-08-16T15:31:26.446Z,97959.41
2022-08-16T15:33:28.130Z,97954.94
2022-08-16T15:35:30.298Z,97958.22
2022-08-16T15:37:42.638Z,97953.75
2022-08-16T15:39:48.572Z,97956.63
2022-08-16T15:42:01.008Z,97962.31
2022-08-16T15:44:10.239Z,97958.28
2022-08-16T15:46:54.072Z,97963.97
2022-08-16T15:48:46.361Z,97954.38
2022-08-16T15:50:48.900Z,97961.66
2022-08-16T15:52:52.006Z,97960.47
2022-08-16T15:54:55.464Z,97958.47
2022-08-16T15:57:05.940Z,97958.09
2022-08-16T15:59:13.409Z,97961.78
2022-08-16T16:01:19.563Z,97961.38
2022-08-16T16:03:27.405Z,97965.84
2022-08-16T16:05:29.600Z,97963.44
2022-08-16T16:07:33.272Z,97968.28
2022-08-16T16:09:37.315Z,97957.03
2022-08-16T16:11:39.154Z,97963.50
2022-08-16T16:13:43.334Z,97960.31
2022-08-16T16:15:51.184Z,97963.97
2022-08-16T16:17:54.387Z,97970.44
2022-08-16T16:19:55.969Z,97967.19
2022-08-16T16:21:58.238Z,97961.94
2022-08-16T16:24:21.020Z,97968.47
2022-08-16T16:26:22.516Z,97962.81
2022-08-16T16:29:06.761Z,97968.50
2022-08-16T16:30:54.852Z,97960.88
2022-08-16T16:32:59.236Z,97958.88
2022-08-16T16:35:06.188Z,97958.91
2022-08-16T16:37:10.047Z,97956.13
2022-08-16T16:39:11.890Z,97960.56
2022-08-16T16:41:17.689Z,97956.56
2022-08-16T16:43:19.299Z,97956.56
2022-08-16T16:45:34.603Z,97952.56
2022-08-16T16:47:41.664Z,97952.19
2022-08-16T16:49:43.649Z,97950.19
2022-08-16T16:51:49.791Z,97952.56
2022-08-16T16:53:56.175Z,97950.19
2022-08-16T16:55:58.061Z,97953.44
2022-08-16T16:58:29.042Z,97955.84
2022-08-16T17:00:38.938Z,97949.44
2022-08-16T17:02:49.725Z,97945.38
2022-08-16T17:04:55.698Z,97947.00
2022-08-16T17:06:58.093Z,97945.81
2022-08-16T17:09:01.627Z,97955.91
2022-08-16T17:11:03.651Z,97943.44
2022-08-16T17:13:06.786Z,97947.06
2022-08-16T17:15:08.889Z,97951.53
2022-08-16T17:17:11.692Z,97953.16
2022-08-16T17:19:22.054Z,97951.97
2022-08-16T17:21:27.204Z,97951.19
2022-08-16T17:23:59.135Z,97956.47
2022-08-16T17:25:52.516Z,97956.88
2022-08-16T17:27:54.190Z,97950.44
2022-08-16T17:29:58.380Z,97948.06
2022-08-16T17:34:28.844Z,97950.09
2022-08-16T17:36:36.343Z,97954.56
2022-08-16T17:38:44.744Z,97950.13
2022-08-16T17:39:27.057Z,97948.88
2022-08-16T17:40:58.794Z,97957.38
2022-08-16T17:43:01.711Z,97953.78
2022-08-16T17:45:03.910Z,97953.78
2022-08-16T17:47:05.631Z,97957.84
2022-08-16T17:49:07.620Z,97960.28
2022-08-16T17:51:09.302Z,97958.66
2022-08-16T17:53:11.866Z,97960.28
2022-08-16T17:55:20.944Z,97967.97
2022-08-16T17:57:22.461Z,97964.34
2022-08-16T17:59:26.520Z,97967.19
2022-08-16T18:01:28.881Z,97963.56
2022-08-16T18:04:06.741Z,97962.78
2022-08-16T18:05:59.262Z,97968.00
2022-08-16T18:08:00.884Z,97972.06
2022-08-16T18:10:03.013Z,97974.09
2022-08-16T18:12:44.906Z,97968.06
2022-08-16T18:14:51.968Z,97980.94
2022-08-16T18:16:54.727Z,97975.31
2022-08-16T18:18:57.028Z,97984.56
2022-08-16T18:21:17.555Z,97978.94
2022-08-16T18:23:24.684Z,97974.91
2022-08-16T18:25:26.724Z,97982.97
2022-08-16T18:27:29.935Z,97978.09
2022-08-16T18:29:31.542Z,97984.53
2022-08-16T18:31:33.959Z,97981.75
2022-08-16T18:33:43.105Z,97987.34
2022-08-16T18:35:45.943Z,97984.53
2022-08-16T18:37:48.127Z,97978.13
2022-08-16T18:39:50.104Z,97987.75
2022-08-16T18:41:54.606Z,97983.75
2022-08-16T18:44:25.076Z,97982.50
2022-08-16T18:46:18.154Z,97978.06
2022-08-16T18:48:22.558Z,97975.25
2022-08-16T18:50:24.631Z,97990.09
2022-08-16T18:52:26.248Z,97982.41
2022-08-16T18:54:30.868Z,97985.63
2022-08-16T18:56:55.229Z,97987.59
2022-08-16T18:58:54.262Z,97988.38
2022-08-16T19:00:57.409Z,97998.00
2022-08-16T19:03:08.779Z,97990.34
2022-08-16T19:05:23.129Z,97993.13
2022-08-16T19:07:30.631Z,98001.13
2022-08-16T19:09:33.162Z,98000.28
2022-08-16T19:11:35.225Z,97998.22
2022-08-16T19:13:36.924Z,97990.56
2022-08-16T19:15:41.098Z,97999.34
2022-08-16T19:17:44.889Z,97996.50
2022-08-16T19:19:46.503Z,98005.69
2022-08-16T19:21:48.069Z,98013.69
2022-08-16T19:23:49.618Z,98012.41
2022-08-16T19:26:00.356Z,98010.34
2022-08-16T19:28:01.974Z,98016.72
2022-08-16T19:30:09.150Z,98019.88
2022-08-16T19:32:19.723Z,98022.19
2022-08-16T19:34:21.465Z,98017.31
2022-08-16T19:36:32.172Z,98018.06
2022-08-16T19:38:37.846Z,98013.59
2022-08-16T19:40:39.452Z,98013.91
2022-08-16T19:42:46.168Z,98018.25
2022-08-16T19:44:50.497Z,98019.38
2022-08-16T19:46:52.056Z,98021.72
2022-08-16T19:48:53.582Z,98026.06
2022-08-16T19:50:55.074Z,98023.19
2022-08-16T19:53:02.243Z,98016.31
2022-08-16T19:55:19.384Z,98032.66
2022-08-16T19:57:25.437Z,98034.97
2022-08-16T19:59:39.731Z,98029.25
2022-08-16T20:01:43.967Z,98027.97
2022-08-16T20:03:45.550Z,98036.31
2022-08-16T20:05:50.922Z,98035.00
2022-08-16T20:07:54.930Z,98037.34
2022-08-16T20:10:01.944Z,98034.44
2022-08-16T20:12:14.142Z,98035.94
2022-08-16T20:14:24.296Z,98043.50
2022-08-16T20:16:27.695Z,98049.44
2022-08-16T20:18:29.308Z,98046.16
2022-08-16T20:20:30.882Z,98054.91
2022-08-16T20:22:52.888Z,98058.00
2022-08-16T20:24:56.921Z,98053.91
2022-08-16T20:26:58.920Z,98060.63
2022-08-16T20:29:01.592Z,98061.75
2022-08-16T20:31:03.153Z,98066.50
2022-08-16T20:33:13.379Z,98065.63
2022-08-16T20:35:22.079Z,98067.16
2022-08-16T20:37:23.772Z,98065.03
2022-08-16T20:39:25.372Z,98066.97
2022-08-16T20:41:29.269Z,98063.31
2022-08-16T20:43:30.777Z,98070.78
2022-08-16T20:45:32.486Z,98072.34
2022-08-16T20:47:34.005Z,98072.16
2022-08-16T20:49:36.709Z,98077.72
2022-08-16T20:51:49.492Z,98076.38
2022-08-16T20:53:52.605Z,98080.69
2022-08-16T20:55:54.593Z,98083.41
2022-08-16T20:57:56.478Z,98074.88
2022-08-16T20:59:58.099Z,98077.59
2022-08-16T21:01:59.817Z,98073.94
2022-08-16T21:04:01.481Z,98073.88
2022-08-16T21:06:04.365Z,98072.63
2022-08-16T21:08:29.391Z,98072.09
2022-08-16T21:10:27.833Z,98067.19
2022-08-16T21:12:33.850Z,98067.09
2022-08-16T21:14:39.861Z,98071.81
2022-08-16T21:16:41.398Z,98077.69
2022-08-16T21:18:43.137Z,98078.81
2022-08-16T21:20:44.794Z,98075.09
2022-08-16T21:22:58.009Z,98077.84
2022-08-16T21:25:00.111Z,98088.13
2022-08-16T21:27:02.745Z,98082.00
2022-08-16T21:29:05.009Z,98086.72
2022-08-16T21:31:10.983Z,98089.81
2022-08-16T21:33:15.217Z,98084.06
2022-08-16T21:35:19.150Z,98085.97
2022-08-16T21:37:20.684Z,98079.50
2022-08-16T21:39:22.149Z,98082.19
2022-08-16T21:41:23.788Z,98080.88
2022-08-16T21:43:27.507Z,98079.94
2022-08-16T21:45:29.125Z,98092.22
2022-08-16T21:47:30.624Z,98085.75
2022-08-16T21:49:32.181Z,98092.06
2022-08-16T21:51:34.685Z,98091.53
2022-08-16T21:53:37.663Z,98085.88
2022-08-16T21:55:41.644Z,98096.56
2022-08-16T21:57:43.135Z,98101.66
2022-08-16T21:59:44.686Z,98092.34
2022-08-16T22:01:46.825Z,98094.25
2022-08-16T22:03:49.070Z,98101.38
2022-08-16T22:06:12.219Z,98096.06
2022-08-16T22:08:16.976Z,98099.56
2022-08-16T22:11:05.152Z,98093.88
2022-08-16T22:12:41.107Z,98097.41
2022-08-16T22:14:43.436Z,98096.94
2022-08-16T22:16:45.264Z,98096.88
2022-08-16T22:18:52.443Z,98094.44
2022-08-16T22:20:54.572Z,98089.94
2022-08-16T22:23:10.671Z,98092.97
2022-08-16T22:25:14.394Z,98094.13
2022-08-16T22:27:15.951Z,98097.19
2022-08-16T22:29:17.719Z,98093.13
2022-08-16T22:31:19.359Z,98086.66
2022-08-16T22:33:26.264Z,98095.41
2022-08-16T22:35:28.009Z,98090.53
2022-08-16T22:37:29.622Z,98096.00
2022-08-16T22:39:31.421Z,98098.34
2022-08-16T22:41:34.619Z,98097.44
2022-08-16T22:43:36.228Z,98097.78
2022-08-16T22:45:38.227Z,98094.09
2022-08-16T22:47:39.730Z,98090.88
2022-08-16T22:49:41.423Z,98086.34
2022-08-16T22:51:43.776Z,98091.47
2022-08-16T22:53:45.589Z,98094.19
2022-08-16T22:55:47.334Z,98089.75
2022-08-16T22:57:49.662Z,98088.84
2022-08-16T22:59:52.606Z,98096.28
2022-08-16T23:01:55.302Z,98094.22
2022-08-16T23:03:57.420Z,98084.50
2022-08-16T23:06:02.467Z,98091.22
2022-08-16T23:08:06.179Z,98093.09
2022-08-16T23:10:08.158Z,98091.00
2022-08-16T23:12:09.873Z,98090.88
2022-08-16T23:14:11.391Z,98098.78
2022-08-16T23:16:13.591Z,98089.53
2022-08-16T23:18:16.176Z,98093.84
2022-08-16T23:20:20.627Z,98095.38
2022-08-16T23:22:24.643Z,98094.09
2022-08-16T23:24:27.672Z,98090.38
2022-08-16T23:26:44.305Z,98093.53
2022-08-16T23:28:47.089Z,98085.88
2022-08-16T23:30:50.239Z,98090.53
2022-08-16T23:32:54.930Z,98097.63
2022-08-16T23:34:56.549Z,98094.72
2022-08-16T23:37:00.038Z,98092.63
2022-08-16T23:39:01.748Z,98093.00
2022-08-16T23:41:05.817Z,98094.06
2022-08-16T23:43:13.714Z,98094.38
2022-08-16T23:45:17.728Z,98094.63
2022-08-16T23:47:19.196Z,98100.09
2022-08-16T23:49:56.239Z,98091.63
2022-08-16T23:51:43.207Z,98090.22
2022-08-16T23:53:45.670Z,98096.13
2022-08-16T23:55:49.838Z,98098.81
2022-08-16T23:57:52.697Z,98086.38
2022-08-16T23:59:54.678Z,98089.91
